METAR Data
IDs: Format: Raw Decoded Include TAF

Data at: 0533 UTC 28 Sep 2022

METAR for:LFST (Strasbourg/Entzheim, PD, FR)
Text:LFST 280530Z AUTO 27005KT 9999 FEW023/// SCT031/// BKN049/// ///TCU 10/10 Q0998 BECMG BKN040
Temperature: 10.0°C ( 50°F)
Dewpoint: 10.0°C ( 50°F) [RH = 100%]
Pressure (altimeter):29.47 inches Hg ( 998.0 mb)
Winds:from the W (270 degrees) at 6 MPH (5 knots; 2.6 m/s)
Visibility:6 or more sm (10+ km)
Ceiling:4900 feet AGL
Clouds: few clouds at 2300 feet AGL, scattered clouds at 3100 feet AGL, broken clouds at 4900 feet AGL
Text:LFST 280500Z AUTO 27003KT 9999 SCT029/// BKN037/// BKN047/// //////TCU 11/10 Q0997 BECMG BKN040
Temperature: 11.0°C ( 52°F)
Dewpoint: 10.0°C ( 50°F) [RH = 94%]
Pressure (altimeter):29.44 inches Hg ( 997.0 mb)
Winds:from the W (270 degrees) at 3 MPH (3 knots; 1.5 m/s)
Visibility:6 or more sm (10+ km)
Ceiling:3700 feet AGL
Clouds: scattered clouds at 2900 feet AGL, broken clouds at 3700 feet AGL, broken clouds at 4700 feet AGL
Text:LFST 280430Z AUTO 20005KT 9999 -RA FEW030/// OVC062/// //////TCU 11/10 Q0997 BECMG BKN040
Temperature: 11.0°C ( 52°F)
Dewpoint: 10.0°C ( 50°F) [RH = 94%]
Pressure (altimeter):29.44 inches Hg ( 997.0 mb)
Winds:from the SSW (200 degrees) at 6 MPH (5 knots; 2.6 m/s)
Visibility:6 or more sm (10+ km)
Ceiling:6200 feet AGL
Clouds: few clouds at 3000 feet AGL, overcast cloud deck at 6200 feet AGL
Weather:-RA (light rain)
Text:LFST 280400Z AUTO 20006KT 9999 BKN052/// OVC064/// ///TCU 11/10 Q0997 TEMPO 4000 RA BECMG BKN040
Temperature: 11.0°C ( 52°F)
Dewpoint: 10.0°C ( 50°F) [RH = 94%]
Pressure (altimeter):29.44 inches Hg ( 997.0 mb)
Winds:from the SSW (200 degrees) at 7 MPH (6 knots; 3.1 m/s)
Visibility:6 or more sm (10+ km)
Ceiling:5200 feet AGL
Clouds: broken clouds at 5200 feet AGL, overcast cloud deck at 6400 feet AGL
Text:LFST 280330Z AUTO 20008KT 6000 -RA FEW024/// BKN038/// BKN047/// ///TCU 11/10 Q0997 TEMPO 4000 RA BECMG BKN040
Temperature: 11.0°C ( 52°F)
Dewpoint: 10.0°C ( 50°F) [RH = 94%]
Pressure (altimeter):29.44 inches Hg ( 997.0 mb)
Winds:from the SSW (200 degrees) at 9 MPH (8 knots; 4.1 m/s)
Visibility: 4 sm ( 6 km)
Ceiling:3800 feet AGL
Clouds: few clouds at 2400 feet AGL, broken clouds at 3800 feet AGL, broken clouds at 4700 feet AGL
Weather:-RA (light rain)
Text:LFST 280300Z AUTO 19008KT 160V220 9999 FEW022/// SCT040/// BKN054/// ///TCU 11/10 Q0997 TEMPO 4000 RA
Temperature: 11.0°C ( 52°F)
Dewpoint: 10.0°C ( 50°F) [RH = 94%]
Pressure (altimeter):29.44 inches Hg ( 997.0 mb)
Winds:from the S (190 degrees) at 9 MPH (8 knots; 4.1 m/s)
Visibility:6 or more sm (10+ km)
Ceiling:5400 feet AGL
Clouds: few clouds at 2200 feet AGL, scattered clouds at 4000 feet AGL, broken clouds at 5400 feet AGL
Text:LFST 280230Z AUTO 19012KT 5000 -RA BR BKN025/// BKN035/// BKN048/// ///TCU 11/10 Q0997 TEMPO RA
Temperature: 11.0°C ( 52°F)
Dewpoint: 10.0°C ( 50°F) [RH = 94%]
Pressure (altimeter):29.44 inches Hg ( 997.0 mb)
Winds:from the S (190 degrees) at 14 MPH (12 knots; 6.2 m/s)
Visibility: 3 sm ( 5 km)
Ceiling:2500 feet AGL
Clouds: broken clouds at 2500 feet AGL, broken clouds at 3500 feet AGL, broken clouds at 4800 feet AGL
Weather:-RA BR (light rain, mist)
Text:LFST 280200Z AUTO 19012KT 160V220 9999 -RA FEW007/// BKN030/// BKN039/// ///TCU 11/10 Q0998 TEMPO 4000 RA
Temperature: 11.0°C ( 52°F)
Dewpoint: 10.0°C ( 50°F) [RH = 94%]
Pressure (altimeter):29.47 inches Hg ( 998.0 mb)
Winds:from the S (190 degrees) at 14 MPH (12 knots; 6.2 m/s)
Visibility:6 or more sm (10+ km)
Ceiling:3000 feet AGL
Clouds: few clouds at 700 feet AGL, broken clouds at 3000 feet AGL, broken clouds at 3900 feet AGL
Weather:-RA (light rain)
Text:LFST 280130Z AUTO 20010KT 9999 -RADZ FEW007/// BKN032/// BKN038/// ///TCU 11/10 Q0998 TEMPO 4000 RA
Temperature: 11.0°C ( 52°F)
Dewpoint: 10.0°C ( 50°F) [RH = 94%]
Pressure (altimeter):29.47 inches Hg ( 998.0 mb)
Winds:from the SSW (200 degrees) at 12 MPH (10 knots; 5.1 m/s)
Visibility:6 or more sm (10+ km)
Ceiling:3200 feet AGL
Clouds: few clouds at 700 feet AGL, broken clouds at 3200 feet AGL, broken clouds at 3800 feet AGL
Weather:-RA -DZ (light rain, light drizzle)
Text:LFST 280100Z AUTO 19013KT 9999 BKN034 BKN048 OVC058 11/10 Q0998 TEMPO 4000 RA FEW020TCU
Temperature: 11.0°C ( 52°F)
Dewpoint: 10.0°C ( 50°F) [RH = 94%]
Pressure (altimeter):29.47 inches Hg ( 998.0 mb)
Winds:from the S (190 degrees) at 15 MPH (13 knots; 6.7 m/s)
Visibility:6 or more sm (10+ km)
Ceiling:3400 feet AGL
Clouds: broken clouds at 3400 feet AGL, broken clouds at 4800 feet AGL, overcast cloud deck at 5800 feet AGL
Text:LFST 280030Z AUTO 19010KT 9999 FEW007/// BKN034/// BKN045/// //////TCU 11/10 Q0999 TEMPO 4000 RA
Temperature: 11.0°C ( 52°F)
Dewpoint: 10.0°C ( 50°F) [RH = 94%]
Pressure (altimeter):29.50 inches Hg ( 999.0 mb)
Winds:from the S (190 degrees) at 12 MPH (10 knots; 5.1 m/s)
Visibility:6 or more sm (10+ km)
Ceiling:3400 feet AGL
Clouds: few clouds at 700 feet AGL, broken clouds at 3400 feet AGL, broken clouds at 4500 feet AGL
Text:LFST 280000Z AUTO 19008KT 160V220 9999 -RA BKN006/// BKN032/// OVC041/// ///TCU 10/10 Q0999 TEMPO 4000 RA FEW020TCU
Temperature: 10.0°C ( 50°F)
Dewpoint: 10.0°C ( 50°F) [RH = 100%]
Pressure (altimeter):29.50 inches Hg ( 999.0 mb)
Winds:from the S (190 degrees) at 9 MPH (8 knots; 4.1 m/s)
Visibility:6 or more sm (10+ km)
Ceiling:600 feet AGL
Clouds: broken clouds at 600 feet AGL, broken clouds at 3200 feet AGL, overcast cloud deck at 4100 feet AGL
Weather:-RA (light rain)
Text:LFST 272330Z AUTO 18007KT 140V210 8000 RA FEW007/// BKN033/// BKN042/// //////CB 10/10 Q1000 TEMPO 4000 RA
Temperature: 10.0°C ( 50°F)
Dewpoint: 10.0°C ( 50°F) [RH = 100%]
Pressure (altimeter):29.53 inches Hg (1000.0 mb)
Winds:from the S (180 degrees) at 8 MPH (7 knots; 3.6 m/s)
Visibility: 5 sm ( 8 km)
Ceiling:3300 feet AGL
Clouds: few clouds at 700 feet AGL, broken clouds at 3300 feet AGL, broken clouds at 4200 feet AGL
Weather:RA (moderate rain)
Text:LFST 272300Z AUTO 18008KT 9999 -RA SCT033/// BKN040/// BKN048/// ///TCU 10/09 Q1001 TEMPO 28015G25KT 4000 RA
Temperature: 10.0°C ( 50°F)
Dewpoint: 9.0°C ( 48°F) [RH = 93%]
Pressure (altimeter):29.56 inches Hg (1001.0 mb)
Winds:from the S (180 degrees) at 9 MPH (8 knots; 4.1 m/s)
Visibility:6 or more sm (10+ km)
Ceiling:4000 feet AGL
Clouds: scattered clouds at 3300 feet AGL, broken clouds at 4000 feet AGL, broken clouds at 4800 feet AGL
Weather:-RA (light rain)
Text:LFST 272230Z AUTO 17007KT 140V200 9999 FEW035/// SCT047/// BKN054/// ///TCU 10/09 Q1001 TEMPO 28015G25KT 4000 RA
Temperature: 10.0°C ( 50°F)
Dewpoint: 9.0°C ( 48°F) [RH = 93%]
Pressure (altimeter):29.56 inches Hg (1001.0 mb)
Winds:from the S (170 degrees) at 8 MPH (7 knots; 3.6 m/s)
Visibility:6 or more sm (10+ km)
Ceiling:5400 feet AGL
Clouds: few clouds at 3500 feet AGL, scattered clouds at 4700 feet AGL, broken clouds at 5400 feet AGL
Text:LFST 272200Z AUTO 18005KT 9999 -RA BKN036/// BKN047/// OVC064/// //////CB 10/09 Q1002 TEMPO 28015G25KT 4000 SHRA
Temperature: 10.0°C ( 50°F)
Dewpoint: 9.0°C ( 48°F) [RH = 93%]
Pressure (altimeter):29.59 inches Hg (1002.0 mb)
Winds:from the S (180 degrees) at 6 MPH (5 knots; 2.6 m/s)
Visibility:6 or more sm (10+ km)
Ceiling:3600 feet AGL
Clouds: broken clouds at 3600 feet AGL, broken clouds at 4700 feet AGL, overcast cloud deck at 6400 feet AGL
Weather:-RA (light rain)
Text:LFST 272130Z AUTO 17006KT 140V210 9999 -RA FEW044/// BKN054/// OVC068/// //////CB 10/09 Q1002 TEMPO 28015G25KT 4000 SHRA
Temperature: 10.0°C ( 50°F)
Dewpoint: 9.0°C ( 48°F) [RH = 93%]
Pressure (altimeter):29.59 inches Hg (1002.0 mb)
Winds:from the S (170 degrees) at 7 MPH (6 knots; 3.1 m/s)
Visibility:6 or more sm (10+ km)
Ceiling:5400 feet AGL
Clouds: few clouds at 4400 feet AGL, broken clouds at 5400 feet AGL, overcast cloud deck at 6800 feet AGL
Weather:-RA (light rain)
Text:LFST 272100Z AUTO 18005KT 9999 -RA FEW041/// BKN062/// OVC080/// ///TCU 10/09 Q1003 TEMPO 28015G25KT 4000 SHRA
Temperature: 10.0°C ( 50°F)
Dewpoint: 9.0°C ( 48°F) [RH = 93%]
Pressure (altimeter):29.62 inches Hg (1003.0 mb)
Winds:from the S (180 degrees) at 6 MPH (5 knots; 2.6 m/s)
Visibility:6 or more sm (10+ km)
Ceiling:6200 feet AGL
Clouds: few clouds at 4100 feet AGL, broken clouds at 6200 feet AGL, overcast cloud deck at 8000 feet AGL
Weather:-RA (light rain)
Text:LFST 272030Z AUTO 18006KT 9999 -RA FEW035/// SCT042/// OVC054/// //////CB 10/08 Q1003 TEMPO 28015G25KT 4000 SHRA
Temperature: 10.0°C ( 50°F)
Dewpoint: 8.0°C ( 46°F) [RH = 87%]
Pressure (altimeter):29.62 inches Hg (1003.0 mb)
Winds:from the S (180 degrees) at 7 MPH (6 knots; 3.1 m/s)
Visibility:6 or more sm (10+ km)
Ceiling:5400 feet AGL
Clouds: few clouds at 3500 feet AGL, scattered clouds at 4200 feet AGL, overcast cloud deck at 5400 feet AGL
Weather:-RA (light rain)
Text:LFST 272000Z AUTO 20009KT 9999 FEW045/// BKN062/// OVC072/// ///TCU 10/08 Q1003 TEMPO 28015G25KT 4000 SHRA
Temperature: 10.0°C ( 50°F)
Dewpoint: 8.0°C ( 46°F) [RH = 87%]
Pressure (altimeter):29.62 inches Hg (1003.0 mb)
Winds:from the SSW (200 degrees) at 10 MPH (9 knots; 4.6 m/s)
Visibility:6 or more sm (10+ km)
Ceiling:6200 feet AGL
Clouds: few clouds at 4500 feet AGL, broken clouds at 6200 feet AGL, overcast cloud deck at 7200 feet AGL
Text:LFST 271930Z AUTO 20007KT 9999 ///TCU 10/08 Q1003 TEMPO 28015G25KT 4000 SHRA
Temperature: 10.0°C ( 50°F)
Dewpoint: 8.0°C ( 46°F) [RH = 87%]
Pressure (altimeter):29.62 inches Hg (1003.0 mb)
Winds:from the SSW (200 degrees) at 8 MPH (7 knots; 3.6 m/s)
Visibility:6 or more sm (10+ km)
Text:LFST 271900Z AUTO 20006KT 9999 FEW034/// BKN110/// //////TCU 10/07 Q1003 TEMPO 28015G25KT 4000 SHRA
Temperature: 10.0°C ( 50°F)
Dewpoint: 7.0°C ( 45°F) [RH = 82%]
Pressure (altimeter):29.62 inches Hg (1003.0 mb)
Winds:from the SSW (200 degrees) at 7 MPH (6 knots; 3.1 m/s)
Visibility:6 or more sm (10+ km)
Ceiling:11000 feet AGL
Clouds: few clouds at 3400 feet AGL, broken clouds at 11000 feet AGL
Text:LFST 271830Z AUTO 18005KT 140V210 CAVOK 10/07 Q1003 TEMPO 28015G25KT 4000 SHRA SCT020TCU
Temperature: 10.0°C ( 50°F)
Dewpoint: 7.0°C ( 45°F) [RH = 82%]
Pressure (altimeter):29.62 inches Hg (1003.0 mb)
Winds:from the S (180 degrees) at 6 MPH (5 knots; 2.6 m/s)
Visibility:6 or more sm (10+ km)
Ceiling:ceiling and visibility are OK
Clouds:unknown
Text:LFST 271800Z AUTO 17004KT CAVOK 09/07 Q1003 TEMPO 28015G25KT 4000 SHRA SCT020TCU
Temperature: 9.0°C ( 48°F)
Dewpoint: 7.0°C ( 45°F) [RH = 87%]
Pressure (altimeter):29.62 inches Hg (1003.0 mb)
Winds:from the S (170 degrees) at 5 MPH (4 knots; 2.1 m/s)
Visibility:6 or more sm (10+ km)
Ceiling:ceiling and visibility are OK
Clouds:unknown
Text:LFST 271730Z AUTO 24008KT 9999 FEW056/// SCT068/// BKN086/// ///TCU 10/06 Q1003 TEMPO 28015G25KT 4000 SHRA
Temperature: 10.0°C ( 50°F)
Dewpoint: 6.0°C ( 43°F) [RH = 76%]
Pressure (altimeter):29.62 inches Hg (1003.0 mb)
Winds:from the WSW (240 degrees) at 9 MPH (8 knots; 4.1 m/s)
Visibility:6 or more sm (10+ km)
Ceiling:8600 feet AGL
Clouds: few clouds at 5600 feet AGL, scattered clouds at 6800 feet AGL, broken clouds at 8600 feet AGL
Text:LFST 271700Z AUTO 24009KT 9999 ///TCU 10/07 Q1003 TEMPO 28015G25KT 4000 SHRA
Temperature: 10.0°C ( 50°F)
Dewpoint: 7.0°C ( 45°F) [RH = 82%]
Pressure (altimeter):29.62 inches Hg (1003.0 mb)
Winds:from the WSW (240 degrees) at 10 MPH (9 knots; 4.6 m/s)
Visibility:6 or more sm (10+ km)
Text:LFST 271630Z AUTO 25012KT 9999 FEW041/// SCT054/// BKN070/// ///TCU 10/07 Q1003 TEMPO 28015G25KT 4000 SHRA
Temperature: 10.0°C ( 50°F)
Dewpoint: 7.0°C ( 45°F) [RH = 82%]
Pressure (altimeter):29.62 inches Hg (1003.0 mb)
Winds:from the WSW (250 degrees) at 14 MPH (12 knots; 6.2 m/s)
Visibility:6 or more sm (10+ km)
Ceiling:7000 feet AGL
Clouds: few clouds at 4100 feet AGL, scattered clouds at 5400 feet AGL, broken clouds at 7000 feet AGL
Text:LFST 271600Z AUTO 26016KT 9999 SCT038/// BKN047/// OVC058/// //////TCU 11/06 Q1003 TEMPO 28015G25KT 4000 SHRA
Temperature: 11.0°C ( 52°F)
Dewpoint: 6.0°C ( 43°F) [RH = 71%]
Pressure (altimeter):29.62 inches Hg (1003.0 mb)
Winds:from the W (260 degrees) at 18 MPH (16 knots; 8.2 m/s)
Visibility:6 or more sm (10+ km)
Ceiling:4700 feet AGL
Clouds: scattered clouds at 3800 feet AGL, broken clouds at 4700 feet AGL, overcast cloud deck at 5800 feet AGL
Text:LFST 271530Z AUTO 24012KT 9999 BKN041/// BKN049/// OVC060/// ///TCU 11/07 Q1003 TEMPO 28015G25KT 4000 SHRA
Temperature: 11.0°C ( 52°F)
Dewpoint: 7.0°C ( 45°F) [RH = 76%]
Pressure (altimeter):29.62 inches Hg (1003.0 mb)
Winds:from the WSW (240 degrees) at 14 MPH (12 knots; 6.2 m/s)
Visibility:6 or more sm (10+ km)
Ceiling:4100 feet AGL
Clouds: broken clouds at 4100 feet AGL, broken clouds at 4900 feet AGL, overcast cloud deck at 6000 feet AGL
Text:LFST 271500Z AUTO 25012KT 9999 SCT038/// OVC049/// ///TCU 10/08 Q1003 TEMPO 28015G25KT 4000 SHRA
Temperature: 10.0°C ( 50°F)
Dewpoint: 8.0°C ( 46°F) [RH = 87%]
Pressure (altimeter):29.62 inches Hg (1003.0 mb)
Winds:from the WSW (250 degrees) at 14 MPH (12 knots; 6.2 m/s)
Visibility:6 or more sm (10+ km)
Ceiling:4900 feet AGL
Clouds: scattered clouds at 3800 feet AGL, overcast cloud deck at 4900 feet AGL
Text:LFST 271430Z AUTO 26012KT 9999 BKN040/// BKN048/// BKN100/// ///TCU 13/06 Q1003 TEMPO 28015G25KT 4000 SHRA
Temperature: 13.0°C ( 55°F)
Dewpoint: 6.0°C ( 43°F) [RH = 62%]
Pressure (altimeter):29.62 inches Hg (1003.0 mb)
Winds:from the W (260 degrees) at 14 MPH (12 knots; 6.2 m/s)
Visibility:6 or more sm (10+ km)
Ceiling:4000 feet AGL
Clouds: broken clouds at 4000 feet AGL, broken clouds at 4800 feet AGL, broken clouds at 10000 feet AGL
Text:LFST 271400Z AUTO 24016KT 9999 FEW035 SCT090 14/06 Q1003 TEMPO 28015G25KT 4000 SHRA SCT020TCU
Temperature: 14.0°C ( 57°F)
Dewpoint: 6.0°C ( 43°F) [RH = 58%]
Pressure (altimeter):29.62 inches Hg (1003.0 mb)
Winds:from the WSW (240 degrees) at 18 MPH (16 knots; 8.2 m/s)
Visibility:6 or more sm (10+ km)
Ceiling:at least 12,000 feet AGL
Clouds: few clouds at 3500 feet AGL, scattered clouds at 9000 feet AGL
Text:LFST 271330Z AUTO 24013KT 210V270 9999 FEW015/// SCT060/// BKN080/// ///TCU 14/07 Q1003 TEMPO 28015G25KT 4000 SHRA FEW020CB
Temperature: 14.0°C ( 57°F)
Dewpoint: 7.0°C ( 45°F) [RH = 63%]
Pressure (altimeter):29.62 inches Hg (1003.0 mb)
Winds:from the WSW (240 degrees) at 15 MPH (13 knots; 6.7 m/s)
Visibility:6 or more sm (10+ km)
Ceiling:8000 feet AGL
Clouds: few clouds at 1500 feet AGL, scattered clouds at 6000 feet AGL, broken clouds at 8000 feet AGL
Text:LFST 271300Z AUTO 25017KT 9999 BKN035/// BKN041/// //////CB 13/06 Q1003 TEMPO 28015G25KT 4000 SHRA
Temperature: 13.0°C ( 55°F)
Dewpoint: 6.0°C ( 43°F) [RH = 62%]
Pressure (altimeter):29.62 inches Hg (1003.0 mb)
Winds:from the WSW (250 degrees) at 20 MPH (17 knots; 8.7 m/s)
Visibility:6 or more sm (10+ km)
Ceiling:3500 feet AGL
Clouds: broken clouds at 3500 feet AGL, broken clouds at 4100 feet AGL
Text:LFST 271230Z AUTO 24013KT 210V270 9999 SCT037/// SCT090/// BKN120/// //////TCU 14/07 Q1002 TEMPO 28015G25KT 4000 SHRA
Temperature: 14.0°C ( 57°F)
Dewpoint: 7.0°C ( 45°F) [RH = 63%]
Pressure (altimeter):29.59 inches Hg (1002.0 mb)
Winds:from the WSW (240 degrees) at 15 MPH (13 knots; 6.7 m/s)
Visibility:6 or more sm (10+ km)
Ceiling:12000 feet AGL
Clouds: scattered clouds at 3700 feet AGL, scattered clouds at 9000 feet AGL, broken clouds at 12000 feet AGL
Text:LFST 271200Z AUTO 24013KT 9999 FEW033/// BKN092/// BKN120/// //////TCU 13/07 Q1003 TEMPO 28015G25KT 4000 SHRA
Temperature: 13.0°C ( 55°F)
Dewpoint: 7.0°C ( 45°F) [RH = 67%]
Pressure (altimeter):29.62 inches Hg (1003.0 mb)
Winds:from the WSW (240 degrees) at 15 MPH (13 knots; 6.7 m/s)
Visibility:6 or more sm (10+ km)
Ceiling:9200 feet AGL
Clouds: few clouds at 3300 feet AGL, broken clouds at 9200 feet AGL, broken clouds at 12000 feet AGL
Text:LFST 271130Z AUTO 24011KT 210V270 9999 FEW030/// BKN036/// BKN048/// ///TCU 12/09 Q1003 TEMPO 28015G25KT 4000 SHRA FEW020CB
Temperature: 12.0°C ( 54°F)
Dewpoint: 9.0°C ( 48°F) [RH = 82%]
Pressure (altimeter):29.62 inches Hg (1003.0 mb)
Winds:from the WSW (240 degrees) at 13 MPH (11 knots; 5.7 m/s)
Visibility:6 or more sm (10+ km)
Ceiling:3600 feet AGL
Clouds: few clouds at 3000 feet AGL, broken clouds at 3600 feet AGL, broken clouds at 4800 feet AGL
Text:LFST 271100Z AUTO 23011KT 200V260 9999 -RA FEW023/// BKN029/// BKN035/// ///CB 12/09 Q1003 TEMPO 28015G25KT 4000 SHRA
Temperature: 12.0°C ( 54°F)
Dewpoint: 9.0°C ( 48°F) [RH = 82%]
Pressure (altimeter):29.62 inches Hg (1003.0 mb)
Winds:from the SW (230 degrees) at 13 MPH (11 knots; 5.7 m/s)
Visibility:6 or more sm (10+ km)
Ceiling:2900 feet AGL
Clouds: few clouds at 2300 feet AGL, broken clouds at 2900 feet AGL, broken clouds at 3500 feet AGL
Weather:-RA (light rain)
Text:LFST 271030Z AUTO 22010KT 9999 -RA BKN035/// BKN042/// OVC050/// ///TCU 12/09 Q1003 TEMPO 28015G25KT 4000 SHRA FEW020CB
Temperature: 12.0°C ( 54°F)
Dewpoint: 9.0°C ( 48°F) [RH = 82%]
Pressure (altimeter):29.62 inches Hg (1003.0 mb)
Winds:from the SW (220 degrees) at 12 MPH (10 knots; 5.1 m/s)
Visibility:6 or more sm (10+ km)
Ceiling:3500 feet AGL
Clouds: broken clouds at 3500 feet AGL, broken clouds at 4200 feet AGL, overcast cloud deck at 5000 feet AGL
Weather:-RA (light rain)
Text:LFST 271000Z AUTO 21010KT 9999 -RA FEW026/// SCT032/// BKN049/// //////TCU 11/09 Q1003 TEMPO 28015G25KT 4000 SHRA FEW020CB
Temperature: 11.0°C ( 52°F)
Dewpoint: 9.0°C ( 48°F) [RH = 87%]
Pressure (altimeter):29.62 inches Hg (1003.0 mb)
Winds:from the SSW (210 degrees) at 12 MPH (10 knots; 5.1 m/s)
Visibility:6 or more sm (10+ km)
Ceiling:4900 feet AGL
Clouds: few clouds at 2600 feet AGL, scattered clouds at 3200 feet AGL, broken clouds at 4900 feet AGL
Weather:-RA (light rain)
Text:LFST 270930Z AUTO 20010KT 9999 BKN033/// BKN042/// OVC064/// //////TCU 12/09 Q1003 TEMPO 28015G25KT 4000 SHRA FEW020CB
Temperature: 12.0°C ( 54°F)
Dewpoint: 9.0°C ( 48°F) [RH = 82%]
Pressure (altimeter):29.62 inches Hg (1003.0 mb)
Winds:from the SSW (200 degrees) at 12 MPH (10 knots; 5.1 m/s)
Visibility:6 or more sm (10+ km)
Ceiling:3300 feet AGL
Clouds: broken clouds at 3300 feet AGL, broken clouds at 4200 feet AGL, overcast cloud deck at 6400 feet AGL
Text:LFST 270900Z AUTO 20009KT 9999 BKN031/// BKN074/// OVC086/// ///TCU 12/08 Q1004 TEMPO 4000 SHRA
Temperature: 12.0°C ( 54°F)
Dewpoint: 8.0°C ( 46°F) [RH = 76%]
Pressure (altimeter):29.65 inches Hg (1004.0 mb)
Winds:from the SSW (200 degrees) at 10 MPH (9 knots; 4.6 m/s)
Visibility:6 or more sm (10+ km)
Ceiling:3100 feet AGL
Clouds: broken clouds at 3100 feet AGL, broken clouds at 7400 feet AGL, overcast cloud deck at 8600 feet AGL
Text:LFST 270830Z AUTO 20008KT 9999 BKN029 BKN035 BKN042 12/09 Q1003 TEMPO 4000 SHRA SCT030TCU
Temperature: 12.0°C ( 54°F)
Dewpoint: 9.0°C ( 48°F) [RH = 82%]
Pressure (altimeter):29.62 inches Hg (1003.0 mb)
Winds:from the SSW (200 degrees) at 9 MPH (8 knots; 4.1 m/s)
Visibility:6 or more sm (10+ km)
Ceiling:2900 feet AGL
Clouds: broken clouds at 2900 feet AGL, broken clouds at 3500 feet AGL, broken clouds at 4200 feet AGL
Text:LFST 270800Z AUTO 19006KT 9999 FEW027 BKN040 BKN098 12/08 Q1003 TEMPO 4000 SHRA SCT030TCU
Temperature: 12.0°C ( 54°F)
Dewpoint: 8.0°C ( 46°F) [RH = 76%]
Pressure (altimeter):29.62 inches Hg (1003.0 mb)
Winds:from the S (190 degrees) at 7 MPH (6 knots; 3.1 m/s)
Visibility:6 or more sm (10+ km)
Ceiling:4000 feet AGL
Clouds: few clouds at 2700 feet AGL, broken clouds at 4000 feet AGL, broken clouds at 9800 feet AGL
Text:LFST 270730Z AUTO 23007KT 200V260 9999 -RA SCT032/// BKN039/// BKN046/// //////TCU 11/08 Q1003 TEMPO 4000 SHRA
Temperature: 11.0°C ( 52°F)
Dewpoint: 8.0°C ( 46°F) [RH = 82%]
Pressure (altimeter):29.62 inches Hg (1003.0 mb)
Winds:from the SW (230 degrees) at 8 MPH (7 knots; 3.6 m/s)
Visibility:6 or more sm (10+ km)
Ceiling:3900 feet AGL
Clouds: scattered clouds at 3200 feet AGL, broken clouds at 3900 feet AGL, broken clouds at 4600 feet AGL
Weather:-RA (light rain)
Text:LFST 270700Z AUTO 22004KT 9999 SCT028/// BKN034/// BKN045/// //////TCU 10/08 Q1003 TEMPO 4000 SHRA
Temperature: 10.0°C ( 50°F)
Dewpoint: 8.0°C ( 46°F) [RH = 87%]
Pressure (altimeter):29.62 inches Hg (1003.0 mb)
Winds:from the SW (220 degrees) at 5 MPH (4 knots; 2.1 m/s)
Visibility:6 or more sm (10+ km)
Ceiling:3400 feet AGL
Clouds: scattered clouds at 2800 feet AGL, broken clouds at 3400 feet AGL, broken clouds at 4500 feet AGL
Text:LFST 270630Z AUTO 23007KT 9999 BKN033/// BKN041/// BKN056/// //////TCU 10/08 Q1003 TEMPO 4000 SHRA
Temperature: 10.0°C ( 50°F)
Dewpoint: 8.0°C ( 46°F) [RH = 87%]
Pressure (altimeter):29.62 inches Hg (1003.0 mb)
Winds:from the SW (230 degrees) at 8 MPH (7 knots; 3.6 m/s)
Visibility:6 or more sm (10+ km)
Ceiling:3300 feet AGL
Clouds: broken clouds at 3300 feet AGL, broken clouds at 4100 feet AGL, broken clouds at 5600 feet AGL
Text:LFST 270600Z AUTO 22007KT 9999 BKN030/// OVC037/// //////TCU 10/08 Q1003 TEMPO 4000 SHRA
Temperature: 10.0°C ( 50°F)
Dewpoint: 8.0°C ( 46°F) [RH = 87%]
Pressure (altimeter):29.62 inches Hg (1003.0 mb)
Winds:from the SW (220 degrees) at 8 MPH (7 knots; 3.6 m/s)
Visibility:6 or more sm (10+ km)
Ceiling:3000 feet AGL
Clouds: broken clouds at 3000 feet AGL, overcast cloud deck at 3700 feet AGL
Text:LFST 270530Z AUTO 19003KT 160V260 9999 BKN032/// BKN038/// BKN046/// ///CB 09/08 Q1002 TEMPO 4000 SHRA
Temperature: 9.0°C ( 48°F)
Dewpoint: 8.0°C ( 46°F) [RH = 93%]
Pressure (altimeter):29.59 inches Hg (1002.0 mb)
Winds:from the S (190 degrees) at 3 MPH (3 knots; 1.5 m/s)
Visibility:6 or more sm (10+ km)
Ceiling:3200 feet AGL
Clouds: broken clouds at 3200 feet AGL, broken clouds at 3800 feet AGL, broken clouds at 4600 feet AGL
Text:LFST 270500Z AUTO 26005KT 230V290 9999 FEW049 SCT064 BKN082 09/07 Q1002 TEMPO 4000 SHRA SCT030TCU
Temperature: 9.0°C ( 48°F)
Dewpoint: 7.0°C ( 45°F) [RH = 87%]
Pressure (altimeter):29.59 inches Hg (1002.0 mb)
Winds:from the W (260 degrees) at 6 MPH (5 knots; 2.6 m/s)
Visibility:6 or more sm (10+ km)
Ceiling:8200 feet AGL
Clouds: few clouds at 4900 feet AGL, scattered clouds at 6400 feet AGL, broken clouds at 8200 feet AGL
Text:LFST 270430Z AUTO 27010KT 250V310 7000 RA FEW039/// BKN052/// BKN066/// ///TCU 10/08 Q1002 TEMPO 4000 SHRA
Temperature: 10.0°C ( 50°F)
Dewpoint: 8.0°C ( 46°F) [RH = 87%]
Pressure (altimeter):29.59 inches Hg (1002.0 mb)
Winds:from the W (270 degrees) at 12 MPH (10 knots; 5.1 m/s)
Visibility: 4 sm ( 7 km)
Ceiling:5200 feet AGL
Clouds: few clouds at 3900 feet AGL, broken clouds at 5200 feet AGL, broken clouds at 6600 feet AGL
Weather:RA (moderate rain)
Text:LFST 270400Z AUTO 25011KT 9999 SCT032/// BKN040/// BKN060/// ///CB 11/07 Q1001 TEMPO 4000 SHRA
Temperature: 11.0°C ( 52°F)
Dewpoint: 7.0°C ( 45°F) [RH = 76%]
Pressure (altimeter):29.56 inches Hg (1001.0 mb)
Winds:from the WSW (250 degrees) at 13 MPH (11 knots; 5.7 m/s)
Visibility:6 or more sm (10+ km)
Ceiling:4000 feet AGL
Clouds: scattered clouds at 3200 feet AGL, broken clouds at 4000 feet AGL, broken clouds at 6000 feet AGL
Text:LFST 270330Z AUTO 23009KT 9999 FEW032/// OVC100/// ///TCU 10/08 Q1001 TEMPO 4000 SHRA
Temperature: 10.0°C ( 50°F)
Dewpoint: 8.0°C ( 46°F) [RH = 87%]
Pressure (altimeter):29.56 inches Hg (1001.0 mb)
Winds:from the SW (230 degrees) at 10 MPH (9 knots; 4.6 m/s)
Visibility:6 or more sm (10+ km)
Ceiling:10000 feet AGL
Clouds: few clouds at 3200 feet AGL, overcast cloud deck at 10000 feet AGL
Text:LFST 270300Z AUTO 25011KT 9999 -RA FEW034/// SCT056/// BKN068/// ///CB 11/08 Q1001 TEMPO 4000 SHRA
Temperature: 11.0°C ( 52°F)
Dewpoint: 8.0°C ( 46°F) [RH = 82%]
Pressure (altimeter):29.56 inches Hg (1001.0 mb)
Winds:from the WSW (250 degrees) at 13 MPH (11 knots; 5.7 m/s)
Visibility:6 or more sm (10+ km)
Ceiling:6800 feet AGL
Clouds: few clouds at 3400 feet AGL, scattered clouds at 5600 feet AGL, broken clouds at 6800 feet AGL
Weather:-RA (light rain)
Text:LFST 270230Z AUTO 24007KT 9999 ///CB 10/08 Q1001 TEMPO 4000 SHRA
Temperature: 10.0°C ( 50°F)
Dewpoint: 8.0°C ( 46°F) [RH = 87%]
Pressure (altimeter):29.56 inches Hg (1001.0 mb)
Winds:from the WSW (240 degrees) at 8 MPH (7 knots; 3.6 m/s)
Visibility:6 or more sm (10+ km)
Text:LFST 270200Z AUTO 22006KT 9999 BKN032 BKN074 BKN100 10/08 Q1001 TEMPO 4000 SHRA SCT030TCU
Temperature: 10.0°C ( 50°F)
Dewpoint: 8.0°C ( 46°F) [RH = 87%]
Pressure (altimeter):29.56 inches Hg (1001.0 mb)
Winds:from the SW (220 degrees) at 7 MPH (6 knots; 3.1 m/s)
Visibility:6 or more sm (10+ km)
Ceiling:3200 feet AGL
Clouds: broken clouds at 3200 feet AGL, broken clouds at 7400 feet AGL, broken clouds at 10000 feet AGL
Text:LFST 270130Z AUTO 28004KT 9999 FEW025/// SCT033/// BKN074/// ///TCU 11/08 Q1000 TEMPO 4000 SHRA FEW020CB
Temperature: 11.0°C ( 52°F)
Dewpoint: 8.0°C ( 46°F) [RH = 82%]
Pressure (altimeter):29.53 inches Hg (1000.0 mb)
Winds:from the W (280 degrees) at 5 MPH (4 knots; 2.1 m/s)
Visibility:6 or more sm (10+ km)
Ceiling:7400 feet AGL
Clouds: few clouds at 2500 feet AGL, scattered clouds at 3300 feet AGL, broken clouds at 7400 feet AGL
Text:LFST 270100Z AUTO 24008KT 9999 -RA BKN024/// BKN032/// BKN045/// //////CB 11/09 Q1000 TEMPO 4000 SHRA
Temperature: 11.0°C ( 52°F)
Dewpoint: 9.0°C ( 48°F) [RH = 87%]
Pressure (altimeter):29.53 inches Hg (1000.0 mb)
Winds:from the WSW (240 degrees) at 9 MPH (8 knots; 4.1 m/s)
Visibility:6 or more sm (10+ km)
Ceiling:2400 feet AGL
Clouds: broken clouds at 2400 feet AGL, broken clouds at 3200 feet AGL, broken clouds at 4500 feet AGL
Weather:-RA (light rain)
Text:LFST 270030Z AUTO 19009KT 9999 BKN026/// BKN033/// OVC041/// //////CB 11/10 Q1000 TEMPO 4000 SHRA
Temperature: 11.0°C ( 52°F)
Dewpoint: 10.0°C ( 50°F) [RH = 94%]
Pressure (altimeter):29.53 inches Hg (1000.0 mb)
Winds:from the S (190 degrees) at 10 MPH (9 knots; 4.6 m/s)
Visibility:6 or more sm (10+ km)
Ceiling:2600 feet AGL
Clouds: broken clouds at 2600 feet AGL, broken clouds at 3300 feet AGL, overcast cloud deck at 4100 feet AGL
Text:LFST 270000Z AUTO 18010KT 9999 BKN030 OVC037 11/09 Q1000 TEMPO 4000 SHRA FEW020CB BECMG 25006KT
Temperature: 11.0°C ( 52°F)
Dewpoint: 9.0°C ( 48°F) [RH = 87%]
Pressure (altimeter):29.53 inches Hg (1000.0 mb)
Winds:from the S (180 degrees) at 12 MPH (10 knots; 5.1 m/s)
Visibility:6 or more sm (10+ km)
Ceiling:3000 feet AGL
Clouds: broken clouds at 3000 feet AGL, overcast cloud deck at 3700 feet AGL
Text:LFST 262330Z AUTO 19010KT 9999 BKN030 OVC036 11/09 Q1000 TEMPO 4000 SHRA FEW020CB BECMG 25006KT
Temperature: 11.0°C ( 52°F)
Dewpoint: 9.0°C ( 48°F) [RH = 87%]
Pressure (altimeter):29.53 inches Hg (1000.0 mb)
Winds:from the S (190 degrees) at 12 MPH (10 knots; 5.1 m/s)
Visibility:6 or more sm (10+ km)
Ceiling:3000 feet AGL
Clouds: broken clouds at 3000 feet AGL, overcast cloud deck at 3600 feet AGL
Text:LFST 262300Z AUTO 19010KT 160V220 9999 -RA OVC031 11/09 Q1000 TEMPO 4000 RA SCT030CB
Temperature: 11.0°C ( 52°F)
Dewpoint: 9.0°C ( 48°F) [RH = 87%]
Pressure (altimeter):29.53 inches Hg (1000.0 mb)
Winds:from the S (190 degrees) at 12 MPH (10 knots; 5.1 m/s)
Visibility:6 or more sm (10+ km)
Ceiling:3100 feet AGL
Clouds: overcast cloud deck at 3100 feet AGL
Weather:-RA (light rain)
Text:LFST 262230Z AUTO 18007KT 9999 -RA BKN031/// OVC037/// ///TCU 11/09 Q1001 TEMPO 4000 RA SCT030CB BECMG 27010KT
Temperature: 11.0°C ( 52°F)
Dewpoint: 9.0°C ( 48°F) [RH = 87%]
Pressure (altimeter):29.56 inches Hg (1001.0 mb)
Winds:from the S (180 degrees) at 8 MPH (7 knots; 3.6 m/s)
Visibility:6 or more sm (10+ km)
Ceiling:3100 feet AGL
Clouds: broken clouds at 3100 feet AGL, overcast cloud deck at 3700 feet AGL
Weather:-RA (light rain)
Text:LFST 262200Z AUTO 17007KT 140V200 9999 -RA BKN034/// OVC043/// ///TCU 11/09 Q1001 TEMPO 4000 RA
Temperature: 11.0°C ( 52°F)
Dewpoint: 9.0°C ( 48°F) [RH = 87%]
Pressure (altimeter):29.56 inches Hg (1001.0 mb)
Winds:from the S (170 degrees) at 8 MPH (7 knots; 3.6 m/s)
Visibility:6 or more sm (10+ km)
Ceiling:3400 feet AGL
Clouds: broken clouds at 3400 feet AGL, overcast cloud deck at 4300 feet AGL
Weather:-RA (light rain)
Text:LFST 262130Z AUTO 19006KT 9999 -RA BKN037/// OVC048/// ///CB 12/08 Q1001 TEMPO 4000 RA
Temperature: 12.0°C ( 54°F)
Dewpoint: 8.0°C ( 46°F) [RH = 76%]
Pressure (altimeter):29.56 inches Hg (1001.0 mb)
Winds:from the S (190 degrees) at 7 MPH (6 knots; 3.1 m/s)
Visibility:6 or more sm (10+ km)
Ceiling:3700 feet AGL
Clouds: broken clouds at 3700 feet AGL, overcast cloud deck at 4800 feet AGL
Weather:-RA (light rain)
Text:LFST 262100Z AUTO 21008KT 180V240 9999 SCT038/// BKN044/// BKN056/// ///CB 13/08 Q1002 TEMPO 4000 RA
Temperature: 13.0°C ( 55°F)
Dewpoint: 8.0°C ( 46°F) [RH = 72%]
Pressure (altimeter):29.59 inches Hg (1002.0 mb)
Winds:from the SSW (210 degrees) at 9 MPH (8 knots; 4.1 m/s)
Visibility:6 or more sm (10+ km)
Ceiling:4400 feet AGL
Clouds: scattered clouds at 3800 feet AGL, broken clouds at 4400 feet AGL, broken clouds at 5600 feet AGL
Text:LFST 262030Z AUTO 20009KT 170V230 9999 SCT054/// BKN076/// OVC094/// ///TCU 13/07 Q1002 TEMPO 4000 RA
Temperature: 13.0°C ( 55°F)
Dewpoint: 7.0°C ( 45°F) [RH = 67%]
Pressure (altimeter):29.59 inches Hg (1002.0 mb)
Winds:from the SSW (200 degrees) at 10 MPH (9 knots; 4.6 m/s)
Visibility:6 or more sm (10+ km)
Ceiling:7600 feet AGL
Clouds: scattered clouds at 5400 feet AGL, broken clouds at 7600 feet AGL, overcast cloud deck at 9400 feet AGL
Text:LFST 262000Z AUTO 21013KT 9999 FEW040/// SCT062/// OVC082/// ///TCU 13/08 Q1002 TEMPO 4000 RA
Temperature: 13.0°C ( 55°F)
Dewpoint: 8.0°C ( 46°F) [RH = 72%]
Pressure (altimeter):29.59 inches Hg (1002.0 mb)
Winds:from the SSW (210 degrees) at 15 MPH (13 knots; 6.7 m/s)
Visibility:6 or more sm (10+ km)
Ceiling:8200 feet AGL
Clouds: few clouds at 4000 feet AGL, scattered clouds at 6200 feet AGL, overcast cloud deck at 8200 feet AGL
Text:LFST 261930Z AUTO 22015KT 9999 FEW042/// OVC064/// ///TCU 13/07 Q1003 TEMPO 4000 RA
Temperature: 13.0°C ( 55°F)
Dewpoint: 7.0°C ( 45°F) [RH = 67%]
Pressure (altimeter):29.62 inches Hg (1003.0 mb)
Winds:from the SW (220 degrees) at 17 MPH (15 knots; 7.7 m/s)
Visibility:6 or more sm (10+ km)
Ceiling:6400 feet AGL
Clouds: few clouds at 4200 feet AGL, overcast cloud deck at 6400 feet AGL
Text:LFST 261900Z AUTO 22015G25KT 9999 FEW044/// SCT056/// OVC068/// ///TCU 14/07 Q1003 TEMPO 4000 RA BECMG 20010KT
Temperature: 14.0°C ( 57°F)
Dewpoint: 7.0°C ( 45°F) [RH = 63%]
Pressure (altimeter):29.62 inches Hg (1003.0 mb)
Winds:from the SW (220 degrees) at 17 MPH (15 knots; 7.7 m/s) gusting to 29 MPH (25 knots; 12.9 m/s)
Visibility:6 or more sm (10+ km)
Ceiling:6800 feet AGL
Clouds: few clouds at 4400 feet AGL, scattered clouds at 5600 feet AGL, overcast cloud deck at 6800 feet AGL
Text:LFST 261830Z AUTO 21011KT 180V240 9999 BKN046/// BKN054/// OVC072/// ///TCU 14/08 Q1003 TEMPO 4000 RA
Temperature: 14.0°C ( 57°F)
Dewpoint: 8.0°C ( 46°F) [RH = 67%]
Pressure (altimeter):29.62 inches Hg (1003.0 mb)
Winds:from the SSW (210 degrees) at 13 MPH (11 knots; 5.7 m/s)
Visibility:6 or more sm (10+ km)
Ceiling:4600 feet AGL
Clouds: broken clouds at 4600 feet AGL, broken clouds at 5400 feet AGL, overcast cloud deck at 7200 feet AGL
Text:LFST 261800Z AUTO 20008KT 9999 SCT046/// SCT058/// OVC072/// ///TCU 14/09 Q1003 TEMPO 4000 RA
Temperature: 14.0°C ( 57°F)
Dewpoint: 9.0°C ( 48°F) [RH = 72%]
Pressure (altimeter):29.62 inches Hg (1003.0 mb)
Winds:from the SSW (200 degrees) at 9 MPH (8 knots; 4.1 m/s)
Visibility:6 or more sm (10+ km)
Ceiling:7200 feet AGL
Clouds: scattered clouds at 4600 feet AGL, scattered clouds at 5800 feet AGL, overcast cloud deck at 7200 feet AGL